sensor_id;sensor_type;location;lat;lon;timestamp;temperature;humidity
4215;DHT22;2121;48.062;7.850;2022-09-25T00:00:46;11.00;99.90
4215;DHT22;2121;48.062;7.850;2022-09-25T00:03:14;11.10;99.90
4215;DHT22;2121;48.062;7.850;2022-09-25T00:05:42;11.10;99.90
4215;DHT22;2121;48.062;7.850;2022-09-25T00:08:10;11.00;99.90
4215;DHT22;2121;48.062;7.850;2022-09-25T00:10:54;11.00;99.90
4215;DHT22;2121;48.062;7.850;2022-09-25T00:13:20;11.10;99.90
4215;DHT22;2121;48.062;7.850;2022-09-25T00:15:50;11.20;99.90
4215;DHT22;2121;48.062;7.850;2022-09-25T00:18:18;11.40;99.90
4215;DHT22;2121;48.062;7.850;2022-09-25T00:21:06;11.30;99.90
4215;DHT22;2121;48.062;7.850;2022-09-25T00:23:33;11.40;99.90
4215;DHT22;2121;48.062;7.850;2022-09-25T00:26:00;11.30;99.90
4215;DHT22;2121;48.062;7.850;2022-09-25T00:28:27;11.20;99.90
4215;DHT22;2121;48.062;7.850;2022-09-25T00:30:55;11.10;99.90
4215;DHT22;2121;48.062;7.850;2022-09-25T00:33:21;11.20;99.90
4215;DHT22;2121;48.062;7.850;2022-09-25T00:35:47;11.20;99.90
4215;DHT22;2121;48.062;7.850;2022-09-25T00:38:12;11.30;99.90
4215;DHT22;2121;48.062;7.850;2022-09-25T00:40:38;11.20;99.90
4215;DHT22;2121;48.062;7.850;2022-09-25T00:43:15;11.20;99.90
4215;DHT22;2121;48.062;7.850;2022-09-25T00:46:13;11.20;99.90
4215;DHT22;2121;48.062;7.850;2022-09-25T00:54:35;11.30;99.90
4215;DHT22;2121;48.062;7.850;2022-09-25T00:57:06;11.30;99.90
4215;DHT22;2121;48.062;7.850;2022-09-25T00:59:39;11.40;99.90
4215;DHT22;2121;48.062;7.850;2022-09-25T01:02:11;11.40;99.90
4215;DHT22;2121;48.062;7.850;2022-09-25T01:04:41;11.40;99.90
4215;DHT22;2121;48.062;7.850;2022-09-25T01:07:10;11.30;99.90
4215;DHT22;2121;48.062;7.850;2022-09-25T01:09:36;11.30;99.90
4215;DHT22;2121;48.062;7.850;2022-09-25T01:12:02;11.40;99.90
4215;DHT22;2121;48.062;7.850;2022-09-25T01:14:29;11.30;99.90
4215;DHT22;2121;48.062;7.850;2022-09-25T01:26:30;11.50;99.90
4215;DHT22;2121;48.062;7.850;2022-09-25T01:34:42;11.50;99.90
4215;DHT22;2121;48.062;7.850;2022-09-25T01:43:16;11.60;99.90
4215;DHT22;2121;48.062;7.850;2022-09-25T01:46:07;11.60;99.90
4215;DHT22;2121;48.062;7.850;2022-09-25T01:48:37;11.50;99.90
4215;DHT22;2121;48.062;7.850;2022-09-25T01:51:12;11.40;99.90
4215;DHT22;2121;48.062;7.850;2022-09-25T01:53:45;11.40;99.90
4215;DHT22;2121;48.062;7.850;2022-09-25T01:56:22;11.30;99.90
4215;DHT22;2121;48.062;7.850;2022-09-25T01:59:12;11.40;99.90
4215;DHT22;2121;48.062;7.850;2022-09-25T02:01:44;11.40;99.90
4215;DHT22;2121;48.062;7.850;2022-09-25T02:04:26;11.40;99.90
4215;DHT22;2121;48.062;7.850;2022-09-25T02:06:55;11.40;99.90
4215;DHT22;2121;48.062;7.850;2022-09-25T02:12:14;11.70;99.90
4215;DHT22;2121;48.062;7.850;2022-09-25T02:15:04;11.80;99.90
4215;DHT22;2121;48.062;7.850;2022-09-25T02:20:31;11.60;99.90
4215;DHT22;2121;48.062;7.850;2022-09-25T02:23:23;11.50;99.90
4215;DHT22;2121;48.062;7.850;2022-09-25T02:26:03;11.50;99.90
4215;DHT22;2121;48.062;7.850;2022-09-25T02:28:31;11.60;99.90
4215;DHT22;2121;48.062;7.850;2022-09-25T02:30:58;11.70;99.90
4215;DHT22;2121;48.062;7.850;2022-09-25T02:33:25;11.80;99.90
4215;DHT22;2121;48.062;7.850;2022-09-25T02:35:52;11.90;99.90
4215;DHT22;2121;48.062;7.850;2022-09-25T02:38:19;11.90;99.90
4215;DHT22;2121;48.062;7.850;2022-09-25T02:40:53;11.90;99.90
4215;DHT22;2121;48.062;7.850;2022-09-25T02:43:29;11.80;99.90
4215;DHT22;2121;48.062;7.850;2022-09-25T02:46:32;11.90;99.90
4215;DHT22;2121;48.062;7.850;2022-09-25T02:51:59;11.90;99.90
4215;DHT22;2121;48.062;7.850;2022-09-25T02:54:33;11.80;99.90
4215;DHT22;2121;48.062;7.850;2022-09-25T02:57:08;11.90;99.90
4215;DHT22;2121;48.062;7.850;2022-09-25T02:59:43;12.00;99.90
4215;DHT22;2121;48.062;7.850;2022-09-25T03:02:12;12.00;99.90
4215;DHT22;2121;48.062;7.850;2022-09-25T03:04:40;12.10;99.90
4215;DHT22;2121;48.062;7.850;2022-09-25T03:07:06;12.20;99.90
4215;DHT22;2121;48.062;7.850;2022-09-25T03:09:34;12.30;99.90
4215;DHT22;2121;48.062;7.850;2022-09-25T03:12:02;12.30;99.90
4215;DHT22;2121;48.062;7.850;2022-09-25T03:14:29;12.30;99.90
4215;DHT22;2121;48.062;7.850;2022-09-25T03:16:58;12.20;99.90
4215;DHT22;2121;48.062;7.850;2022-09-25T03:19:27;12.20;99.90
4215;DHT22;2121;48.062;7.850;2022-09-25T03:21:54;12.30;99.90
4215;DHT22;2121;48.062;7.850;2022-09-25T03:24:20;12.20;99.90
4215;DHT22;2121;48.062;7.850;2022-09-25T03:26:46;12.10;99.90
4215;DHT22;2121;48.062;7.850;2022-09-25T03:29:12;12.00;99.90
4215;DHT22;2121;48.062;7.850;2022-09-25T03:31:39;11.90;99.90
4215;DHT22;2121;48.062;7.850;2022-09-25T03:34:11;11.90;99.90
4215;DHT22;2121;48.062;7.850;2022-09-25T03:36:37;12.00;99.90
4215;DHT22;2121;48.062;7.850;2022-09-25T03:39:03;12.00;99.90
4215;DHT22;2121;48.062;7.850;2022-09-25T03:41:32;11.90;99.90
4215;DHT22;2121;48.062;7.850;2022-09-25T03:44:00;11.80;99.90
4215;DHT22;2121;48.062;7.850;2022-09-25T03:46:28;11.80;99.90
4215;DHT22;2121;48.062;7.850;2022-09-25T03:48:56;11.70;99.90
4215;DHT22;2121;48.062;7.850;2022-09-25T03:51:23;11.80;99.90
4215;DHT22;2121;48.062;7.850;2022-09-25T03:53:50;11.90;99.90
4215;DHT22;2121;48.062;7.850;2022-09-25T03:56:22;12.00;99.90
4215;DHT22;2121;48.062;7.850;2022-09-25T03:58:50;12.00;99.90
4215;DHT22;2121;48.062;7.850;2022-09-25T04:01:18;12.00;99.90
4215;DHT22;2121;48.062;7.850;2022-09-25T04:03:45;11.90;99.90
4215;DHT22;2121;48.062;7.850;2022-09-25T04:06:12;12.00;99.90
4215;DHT22;2121;48.062;7.850;2022-09-25T04:08:39;11.90;99.90
4215;DHT22;2121;48.062;7.850;2022-09-25T04:11:06;11.80;99.90
4215;DHT22;2121;48.062;7.850;2022-09-25T04:13:34;11.90;99.90
4215;DHT22;2121;48.062;7.850;2022-09-25T04:16:01;12.00;99.90
4215;DHT22;2121;48.062;7.850;2022-09-25T04:18:29;12.10;99.90
4215;DHT22;2121;48.062;7.850;2022-09-25T04:20:59;12.00;99.90
4215;DHT22;2121;48.062;7.850;2022-09-25T04:23:25;12.00;99.90
4215;DHT22;2121;48.062;7.850;2022-09-25T04:25:52;12.00;99.90
4215;DHT22;2121;48.062;7.850;2022-09-25T04:28:17;12.00;99.90
4215;DHT22;2121;48.062;7.850;2022-09-25T04:30:43;11.90;99.90
4215;DHT22;2121;48.062;7.850;2022-09-25T04:33:09;11.80;99.90
4215;DHT22;2121;48.062;7.850;2022-09-25T04:35:53;11.80;99.90
4215;DHT22;2121;48.062;7.850;2022-09-25T04:38:21;11.80;99.90
4215;DHT22;2121;48.062;7.850;2022-09-25T04:40:47;11.80;99.90
4215;DHT22;2121;48.062;7.850;2022-09-25T04:43:13;11.70;99.90
4215;DHT22;2121;48.062;7.850;2022-09-25T04:45:38;11.70;99.90
4215;DHT22;2121;48.062;7.850;2022-09-25T04:48:05;11.60;99.90
4215;DHT22;2121;48.062;7.850;2022-09-25T04:50:31;11.50;99.90
4215;DHT22;2121;48.062;7.850;2022-09-25T04:52:58;11.50;99.90
4215;DHT22;2121;48.062;7.850;2022-09-25T04:55:25;11.50;99.90
4215;DHT22;2121;48.062;7.850;2022-09-25T04:57:58;11.70;99.90
4215;DHT22;2121;48.062;7.850;2022-09-25T05:00:27;11.70;99.90
4215;DHT22;2121;48.062;7.850;2022-09-25T05:02:54;11.80;99.90
4215;DHT22;2121;48.062;7.850;2022-09-25T05:05:20;11.80;99.90
4215;DHT22;2121;48.062;7.850;2022-09-25T05:07:53;11.80;99.90
4215;DHT22;2121;48.062;7.850;2022-09-25T05:10:21;11.90;99.90
4215;DHT22;2121;48.062;7.850;2022-09-25T05:12:57;11.90;99.90
4215;DHT22;2121;48.062;7.850;2022-09-25T05:15:25;11.90;99.90
4215;DHT22;2121;48.062;7.850;2022-09-25T05:18:15;12.10;99.90
4215;DHT22;2121;48.062;7.850;2022-09-25T05:20:41;12.10;99.90
4215;DHT22;2121;48.062;7.850;2022-09-25T05:23:07;12.10;99.90
4215;DHT22;2121;48.062;7.850;2022-09-25T05:25:33;12.10;99.90
4215;DHT22;2121;48.062;7.850;2022-09-25T05:28:00;12.20;99.90
4215;DHT22;2121;48.062;7.850;2022-09-25T05:30:29;12.20;99.90
4215;DHT22;2121;48.062;7.850;2022-09-25T05:32:56;12.20;99.90
4215;DHT22;2121;48.062;7.850;2022-09-25T05:35:27;12.20;99.90
4215;DHT22;2121;48.062;7.850;2022-09-25T05:37:54;12.10;99.90
4215;DHT22;2121;48.062;7.850;2022-09-25T05:40:21;12.10;99.90
4215;DHT22;2121;48.062;7.850;2022-09-25T05:42:48;12.10;99.90
4215;DHT22;2121;48.062;7.850;2022-09-25T05:45:15;12.20;99.90
4215;DHT22;2121;48.062;7.850;2022-09-25T05:47:43;12.10;99.90
4215;DHT22;2121;48.062;7.850;2022-09-25T05:50:11;12.20;99.90
4215;DHT22;2121;48.062;7.850;2022-09-25T05:52:38;12.20;99.90
4215;DHT22;2121;48.062;7.850;2022-09-25T05:55:05;12.30;99.90
4215;DHT22;2121;48.062;7.850;2022-09-25T05:57:33;12.40;99.90
4215;DHT22;2121;48.062;7.850;2022-09-25T06:00:00;12.30;99.90
4215;DHT22;2121;48.062;7.850;2022-09-25T06:02:26;12.30;99.90
4215;DHT22;2121;48.062;7.850;2022-09-25T06:04:52;12.30;99.90
4215;DHT22;2121;48.062;7.850;2022-09-25T06:07:18;12.30;99.90
4215;DHT22;2121;48.062;7.850;2022-09-25T06:09:44;12.40;99.90
4215;DHT22;2121;48.062;7.850;2022-09-25T06:12:10;12.40;99.90
4215;DHT22;2121;48.062;7.850;2022-09-25T06:14:35;12.50;99.90
4215;DHT22;2121;48.062;7.850;2022-09-25T06:17:02;12.50;99.90
4215;DHT22;2121;48.062;7.850;2022-09-25T06:19:28;12.50;99.90
4215;DHT22;2121;48.062;7.850;2022-09-25T06:21:55;12.40;99.90
4215;DHT22;2121;48.062;7.850;2022-09-25T06:24:22;12.40;99.90
4215;DHT22;2121;48.062;7.850;2022-09-25T06:26:48;12.30;99.90
4215;DHT22;2121;48.062;7.850;2022-09-25T06:29:14;12.30;99.90
4215;DHT22;2121;48.062;7.850;2022-09-25T06:31:40;12.40;99.90
4215;DHT22;2121;48.062;7.850;2022-09-25T06:34:07;12.40;99.90
4215;DHT22;2121;48.062;7.850;2022-09-25T06:36:34;12.50;99.90
4215;DHT22;2121;48.062;7.850;2022-09-25T06:39:01;12.50;99.90
4215;DHT22;2121;48.062;7.850;2022-09-25T06:41:26;12.60;99.90
4215;DHT22;2121;48.062;7.850;2022-09-25T06:43:52;12.80;99.90
4215;DHT22;2121;48.062;7.850;2022-09-25T06:46:20;12.90;99.90
4215;DHT22;2121;48.062;7.850;2022-09-25T06:48:55;12.90;99.90
4215;DHT22;2121;48.062;7.850;2022-09-25T06:51:24;12.90;99.90
4215;DHT22;2121;48.062;7.850;2022-09-25T06:53:55;13.00;99.90
4215;DHT22;2121;48.062;7.850;2022-09-25T06:56:21;13.10;99.90
4215;DHT22;2121;48.062;7.850;2022-09-25T06:58:47;13.10;99.90
4215;DHT22;2121;48.062;7.850;2022-09-25T07:01:13;13.20;99.90
4215;DHT22;2121;48.062;7.850;2022-09-25T07:03:39;13.30;99.90
4215;DHT22;2121;48.062;7.850;2022-09-25T07:06:20;13.30;99.90
4215;DHT22;2121;48.062;7.850;2022-09-25T07:08:51;13.30;99.90
4215;DHT22;2121;48.062;7.850;2022-09-25T07:11:22;13.20;99.90
4215;DHT22;2121;48.062;7.850;2022-09-25T07:13:49;13.10;99.90
4215;DHT22;2121;48.062;7.850;2022-09-25T07:16:18;13.10;99.90
4215;DHT22;2121;48.062;7.850;2022-09-25T07:18:44;13.10;99.90
4215;DHT22;2121;48.062;7.850;2022-09-25T07:21:16;13.20;99.90
4215;DHT22;2121;48.062;7.850;2022-09-25T07:23:45;13.30;99.90
4215;DHT22;2121;48.062;7.850;2022-09-25T07:26:33;13.50;99.90
4215;DHT22;2121;48.062;7.850;2022-09-25T07:29:02;13.80;99.90
4215;DHT22;2121;48.062;7.850;2022-09-25T07:31:31;13.90;99.90
4215;DHT22;2121;48.062;7.850;2022-09-25T07:33:58;14.00;99.90
4215;DHT22;2121;48.062;7.850;2022-09-25T07:36:27;14.30;99.90
4215;DHT22;2121;48.062;7.850;2022-09-25T07:38:53;14.50;99.90
4215;DHT22;2121;48.062;7.850;2022-09-25T07:41:20;15.00;99.90
4215;DHT22;2121;48.062;7.850;2022-09-25T07:43:50;14.90;99.90
4215;DHT22;2121;48.062;7.850;2022-09-25T07:46:23;14.80;99.90
4215;DHT22;2121;48.062;7.850;2022-09-25T07:48:49;14.90;99.90
4215;DHT22;2121;48.062;7.850;2022-09-25T07:51:16;14.90;99.90
4215;DHT22;2121;48.062;7.850;2022-09-25T07:53:42;15.10;99.90
4215;DHT22;2121;48.062;7.850;2022-09-25T07:56:10;15.20;99.90
4215;DHT22;2121;48.062;7.850;2022-09-25T07:58:36;15.30;99.90
4215;DHT22;2121;48.062;7.850;2022-09-25T08:01:05;15.30;99.90
4215;DHT22;2121;48.062;7.850;2022-09-25T08:03:32;15.30;99.90
4215;DHT22;2121;48.062;7.850;2022-09-25T08:06:04;14.80;99.90
4215;DHT22;2121;48.062;7.850;2022-09-25T08:08:33;14.50;99.90
4215;DHT22;2121;48.062;7.850;2022-09-25T08:11:07;14.20;99.90
4215;DHT22;2121;48.062;7.850;2022-09-25T08:13:36;14.00;99.90
4215;DHT22;2121;48.062;7.850;2022-09-25T08:16:07;14.00;99.90
4215;DHT22;2121;48.062;7.850;2022-09-25T08:18:41;14.00;99.90
4215;DHT22;2121;48.062;7.850;2022-09-25T08:21:10;13.90;99.90
4215;DHT22;2121;48.062;7.850;2022-09-25T08:23:39;14.00;99.90
4215;DHT22;2121;48.062;7.850;2022-09-25T08:26:06;14.20;99.90
4215;DHT22;2121;48.062;7.850;2022-09-25T08:28:32;14.50;99.90
4215;DHT22;2121;48.062;7.850;2022-09-25T08:30:59;14.70;99.90
4215;DHT22;2121;48.062;7.850;2022-09-25T08:33:26;14.90;99.90
4215;DHT22;2121;48.062;7.850;2022-09-25T08:36:00;15.10;99.90
4215;DHT22;2121;48.062;7.850;2022-09-25T08:38:28;15.40;99.90
4215;DHT22;2121;48.062;7.850;2022-09-25T08:41:25;15.80;99.90
4215;DHT22;2121;48.062;7.850;2022-09-25T08:46:53;15.80;99.90
4215;DHT22;2121;48.062;7.850;2022-09-25T08:50:10;15.50;99.90
4215;DHT22;2121;48.062;7.850;2022-09-25T08:52:42;15.70;99.90
4215;DHT22;2121;48.062;7.850;2022-09-25T08:55:18;16.10;99.90
4215;DHT22;2121;48.062;7.850;2022-09-25T08:58:38;16.30;99.90
4215;DHT22;2121;48.062;7.850;2022-09-25T09:01:12;16.30;99.90
4215;DHT22;2121;48.062;7.850;2022-09-25T09:04:04;16.70;99.90
4215;DHT22;2121;48.062;7.850;2022-09-25T09:06:36;16.90;99.90
4215;DHT22;2121;48.062;7.850;2022-09-25T09:09:39;16.90;99.90
4215;DHT22;2121;48.062;7.850;2022-09-25T09:14:47;16.90;99.90
4215;DHT22;2121;48.062;7.850;2022-09-25T09:17:23;16.90;99.90
4215;DHT22;2121;48.062;7.850;2022-09-25T09:20:05;16.90;99.90
4215;DHT22;2121;48.062;7.850;2022-09-25T09:22:44;17.10;99.90
4215;DHT22;2121;48.062;7.850;2022-09-25T09:25:59;17.30;99.90
4215;DHT22;2121;48.062;7.850;2022-09-25T09:37:03;17.50;99.90
4215;DHT22;2121;48.062;7.850;2022-09-25T09:42:35;18.00;99.90
4215;DHT22;2121;48.062;7.850;2022-09-25T09:48:18;18.60;99.90
4215;DHT22;2121;48.062;7.850;2022-09-25T09:50:51;18.20;99.90
4215;DHT22;2121;48.062;7.850;2022-09-25T09:53:24;18.10;99.90
4215;DHT22;2121;48.062;7.850;2022-09-25T09:56:03;18.10;99.90
4215;DHT22;2121;48.062;7.850;2022-09-25T09:58:47;18.00;99.90
4215;DHT22;2121;48.062;7.850;2022-09-25T10:01:18;18.40;99.90
4215;DHT22;2121;48.062;7.850;2022-09-25T10:03:48;18.50;99.90
4215;DHT22;2121;48.062;7.850;2022-09-25T10:06:21;18.90;99.90
4215;DHT22;2121;48.062;7.850;2022-09-25T10:08:49;19.60;99.90
4215;DHT22;2121;48.062;7.850;2022-09-25T10:11:17;20.00;99.90
4215;DHT22;2121;48.062;7.850;2022-09-25T10:13:43;20.10;99.90
4215;DHT22;2121;48.062;7.850;2022-09-25T10:16:21;20.40;99.90
4215;DHT22;2121;48.062;7.850;2022-09-25T10:24:44;20.40;99.90
4215;DHT22;2121;48.062;7.850;2022-09-25T10:32:55;20.10;99.90
4215;DHT22;2121;48.062;7.850;2022-09-25T10:38:03;19.00;99.90
4215;DHT22;2121;48.062;7.850;2022-09-25T10:40:34;18.50;99.90
4215;DHT22;2121;48.062;7.850;2022-09-25T10:43:19;18.40;99.90
4215;DHT22;2121;48.062;7.850;2022-09-25T10:45:48;18.50;99.90
4215;DHT22;2121;48.062;7.850;2022-09-25T10:48:29;18.50;99.90
4215;DHT22;2121;48.062;7.850;2022-09-25T10:51:17;19.00;99.90
4215;DHT22;2121;48.062;7.850;2022-09-25T10:53:46;19.30;99.90
4215;DHT22;2121;48.062;7.850;2022-09-25T10:56:42;19.60;99.90
4215;DHT22;2121;48.062;7.850;2022-09-25T10:59:15;18.50;99.90
4215;DHT22;2121;48.062;7.850;2022-09-25T11:01:46;18.00;99.90
4215;DHT22;2121;48.062;7.850;2022-09-25T11:04:18;17.70;99.90
4215;DHT22;2121;48.062;7.850;2022-09-25T11:06:49;18.00;99.90
4215;DHT22;2121;48.062;7.850;2022-09-25T11:09:20;18.30;99.90
4215;DHT22;2121;48.062;7.850;2022-09-25T11:11:48;18.80;99.90
4215;DHT22;2121;48.062;7.850;2022-09-25T11:14:23;19.10;99.90
4215;DHT22;2121;48.062;7.850;2022-09-25T11:16:58;19.00;99.90
4215;DHT22;2121;48.062;7.850;2022-09-25T11:19:28;18.80;99.90
4215;DHT22;2121;48.062;7.850;2022-09-25T11:22:15;19.10;99.90
4215;DHT22;2121;48.062;7.850;2022-09-25T11:31:04;18.50;99.90
4215;DHT22;2121;48.062;7.850;2022-09-25T11:36:48;18.70;99.90
4215;DHT22;2121;48.062;7.850;2022-09-25T11:39:41;19.30;99.90
4215;DHT22;2121;48.062;7.850;2022-09-25T11:42:34;19.30;99.90
4215;DHT22;2121;48.062;7.850;2022-09-25T11:45:23;19.70;99.90
4215;DHT22;2121;48.062;7.850;2022-09-25T11:57:22;21.20;99.90
4215;DHT22;2121;48.062;7.850;2022-09-25T12:00:08;22.10;99.90
4215;DHT22;2121;48.062;7.850;2022-09-25T12:06:13;21.30;99.30
4215;DHT22;2121;48.062;7.850;2022-09-25T12:21:04;17.50;99.90
4215;DHT22;2121;48.062;7.850;2022-09-25T12:29:03;17.30;99.90
4215;DHT22;2121;48.062;7.850;2022-09-25T12:31:59;17.20;99.90
4215;DHT22;2121;48.062;7.850;2022-09-25T12:37:42;17.00;99.90
4215;DHT22;2121;48.062;7.850;2022-09-25T12:40:30;17.00;99.90
4215;DHT22;2121;48.062;7.850;2022-09-25T12:43:09;16.90;99.90
4215;DHT22;2121;48.062;7.850;2022-09-25T12:46:23;17.10;99.90
4215;DHT22;2121;48.062;7.850;2022-09-25T12:49:01;17.20;99.90
4215;DHT22;2121;48.062;7.850;2022-09-25T12:51:41;17.30;99.90
4215;DHT22;2121;48.062;7.850;2022-09-25T12:54:33;17.30;99.90
4215;DHT22;2121;48.062;7.850;2022-09-25T12:57:10;17.50;99.90
4215;DHT22;2121;48.062;7.850;2022-09-25T13:06:57;17.90;99.90
4215;DHT22;2121;48.062;7.850;2022-09-25T13:15:20;18.20;99.90
4215;DHT22;2121;48.062;7.850;2022-09-25T13:17:48;18.20;99.90
4215;DHT22;2121;48.062;7.850;2022-09-25T13:23:49;18.00;99.90
4215;DHT22;2121;48.062;7.850;2022-09-25T13:26:19;17.90;99.90
4215;DHT22;2121;48.062;7.850;2022-09-25T13:29:06;17.80;99.90
4215;DHT22;2121;48.062;7.850;2022-09-25T13:32:23;17.60;99.90
4215;DHT22;2121;48.062;7.850;2022-09-25T13:34:55;17.20;99.90
4215;DHT22;2121;48.062;7.850;2022-09-25T13:37:31;16.80;99.90
4215;DHT22;2121;48.062;7.850;2022-09-25T13:40:00;16.80;99.90
4215;DHT22;2121;48.062;7.850;2022-09-25T13:43:19;16.90;99.90
4215;DHT22;2121;48.062;7.850;2022-09-25T13:45:46;17.00;99.90
4215;DHT22;2121;48.062;7.850;2022-09-25T13:48:33;17.00;99.90
4215;DHT22;2121;48.062;7.850;2022-09-25T13:53:57;16.40;99.90
4215;DHT22;2121;48.062;7.850;2022-09-25T14:01:57;16.10;99.90
4215;DHT22;2121;48.062;7.850;2022-09-25T14:04:50;16.20;99.90
4215;DHT22;2121;48.062;7.850;2022-09-25T14:07:23;16.10;99.90
4215;DHT22;2121;48.062;7.850;2022-09-25T14:09:55;16.10;99.90
4215;DHT22;2121;48.062;7.850;2022-09-25T14:12:34;16.20;99.90
4215;DHT22;2121;48.062;7.850;2022-09-25T14:15:33;16.30;99.90
4215;DHT22;2121;48.062;7.850;2022-09-25T14:18:07;16.40;99.90
4215;DHT22;2121;48.062;7.850;2022-09-25T14:20:44;16.40;99.90
4215;DHT22;2121;48.062;7.850;2022-09-25T14:23:12;16.40;99.90
4215;DHT22;2121;48.062;7.850;2022-09-25T14:28:27;16.20;99.90
4215;DHT22;2121;48.062;7.850;2022-09-25T14:34:32;15.80;99.90
4215;DHT22;2121;48.062;7.850;2022-09-25T14:40:21;14.70;99.90
4215;DHT22;2121;48.062;7.850;2022-09-25T14:49:10;14.20;99.90
4215;DHT22;2121;48.062;7.850;2022-09-25T14:51:47;14.10;99.90
4215;DHT22;2121;48.062;7.850;2022-09-25T14:54:18;13.90;99.90
4215;DHT22;2121;48.062;7.850;2022-09-25T14:56:52;14.00;99.90
4215;DHT22;2121;48.062;7.850;2022-09-25T14:59:35;14.10;99.90
4215;DHT22;2121;48.062;7.850;2022-09-25T15:02:26;14.20;99.90
4215;DHT22;2121;48.062;7.850;2022-09-25T15:05:43;14.60;99.90
4215;DHT22;2121;48.062;7.850;2022-09-25T15:08:19;15.20;99.90
4215;DHT22;2121;48.062;7.850;2022-09-25T15:11:09;15.70;99.90
4215;DHT22;2121;48.062;7.850;2022-09-25T15:13:37;15.70;99.90
4215;DHT22;2121;48.062;7.850;2022-09-25T15:16:03;15.70;99.90
4215;DHT22;2121;48.062;7.850;2022-09-25T15:18:53;15.70;99.90
4215;DHT22;2121;48.062;7.850;2022-09-25T15:21:28;15.70;99.90
4215;DHT22;2121;48.062;7.850;2022-09-25T15:24:00;15.50;99.90
4215;DHT22;2121;48.062;7.850;2022-09-25T15:26:29;15.40;99.90
4215;DHT22;2121;48.062;7.850;2022-09-25T15:28:56;15.30;99.90
4215;DHT22;2121;48.062;7.850;2022-09-25T15:31:22;15.20;99.90
4215;DHT22;2121;48.062;7.850;2022-09-25T15:34:03;15.20;99.90
4215;DHT22;2121;48.062;7.850;2022-09-25T15:36:35;15.90;99.90
4215;DHT22;2121;48.062;7.850;2022-09-25T15:39:12;18.40;99.90
4215;DHT22;2121;48.062;7.850;2022-09-25T15:41:41;21.70;99.90
4215;DHT22;2121;48.062;7.850;2022-09-25T15:44:17;22.20;99.90
4215;DHT22;2121;48.062;7.850;2022-09-25T15:46:57;21.10;99.90
4215;DHT22;2121;48.062;7.850;2022-09-25T15:49:40;21.40;99.90
4215;DHT22;2121;48.062;7.850;2022-09-25T15:52:23;23.70;99.90
4215;DHT22;2121;48.062;7.850;2022-09-25T15:54:52;27.30;99.90
4215;DHT22;2121;48.062;7.850;2022-09-25T15:57:28;28.70;98.80
4215;DHT22;2121;48.062;7.850;2022-09-25T15:59:55;29.30;96.80
4215;DHT22;2121;48.062;7.850;2022-09-25T16:03:14;29.00;96.50
4215;DHT22;2121;48.062;7.850;2022-09-25T16:06:12;27.80;96.40
4215;DHT22;2121;48.062;7.850;2022-09-25T16:08:42;28.40;96.20
4215;DHT22;2121;48.062;7.850;2022-09-25T16:13:40;25.40;97.10
4215;DHT22;2121;48.062;7.850;2022-09-25T16:16:26;23.80;98.50
4215;DHT22;2121;48.062;7.850;2022-09-25T16:18:54;22.60;99.90
4215;DHT22;2121;48.062;7.850;2022-09-25T16:24:00;20.50;99.90
4215;DHT22;2121;48.062;7.850;2022-09-25T16:26:38;19.80;99.90
4215;DHT22;2121;48.062;7.850;2022-09-25T16:32:14;18.20;99.90
4215;DHT22;2121;48.062;7.850;2022-09-25T16:34:59;17.60;99.90
4215;DHT22;2121;48.062;7.850;2022-09-25T16:37:32;17.10;99.90
4215;DHT22;2121;48.062;7.850;2022-09-25T16:40:09;16.80;99.90
4215;DHT22;2121;48.062;7.850;2022-09-25T16:42:45;16.50;99.90
4215;DHT22;2121;48.062;7.850;2022-09-25T16:45:17;16.20;99.90
4215;DHT22;2121;48.062;7.850;2022-09-25T16:47:50;16.10;99.90
4215;DHT22;2121;48.062;7.850;2022-09-25T16:50:18;16.00;99.90
4215;DHT22;2121;48.062;7.850;2022-09-25T16:52:46;16.00;99.90
4215;DHT22;2121;48.062;7.850;2022-09-25T16:55:25;15.90;99.90
4215;DHT22;2121;48.062;7.850;2022-09-25T16:57:54;15.80;99.90
4215;DHT22;2121;48.062;7.850;2022-09-25T17:00:25;15.70;99.90
4215;DHT22;2121;48.062;7.850;2022-09-25T17:02:52;15.60;99.90
4215;DHT22;2121;48.062;7.850;2022-09-25T17:05:27;15.50;99.90
4215;DHT22;2121;48.062;7.850;2022-09-25T17:07:56;15.40;99.90
4215;DHT22;2121;48.062;7.850;2022-09-25T17:10:26;15.30;99.90
4215;DHT22;2121;48.062;7.850;2022-09-25T17:12:55;15.20;99.90
4215;DHT22;2121;48.062;7.850;2022-09-25T17:15:26;15.00;99.90
4215;DHT22;2121;48.062;7.850;2022-09-25T17:18:00;14.80;99.90
4215;DHT22;2121;48.062;7.850;2022-09-25T17:20:29;14.60;99.90
4215;DHT22;2121;48.062;7.850;2022-09-25T17:22:58;14.30;99.90
4215;DHT22;2121;48.062;7.850;2022-09-25T17:28:10;13.50;99.90
4215;DHT22;2121;48.062;7.850;2022-09-25T17:30:37;13.20;99.90
4215;DHT22;2121;48.062;7.850;2022-09-25T17:33:04;13.00;99.90
4215;DHT22;2121;48.062;7.850;2022-09-25T17:35:53;12.80;99.90
4215;DHT22;2121;48.062;7.850;2022-09-25T17:38:24;12.70;99.90
4215;DHT22;2121;48.062;7.850;2022-09-25T17:40:52;12.60;99.90
4215;DHT22;2121;48.062;7.850;2022-09-25T17:43:20;12.40;99.90
4215;DHT22;2121;48.062;7.850;2022-09-25T17:45:57;12.50;99.90
4215;DHT22;2121;48.062;7.850;2022-09-25T17:48:26;12.50;99.90
4215;DHT22;2121;48.062;7.850;2022-09-25T17:53:30;12.50;99.90
4215;DHT22;2121;48.062;7.850;2022-09-25T17:55:58;12.50;99.90
4215;DHT22;2121;48.062;7.850;2022-09-25T17:58:25;12.40;99.90
4215;DHT22;2121;48.062;7.850;2022-09-25T18:00:53;12.50;99.90
4215;DHT22;2121;48.062;7.850;2022-09-25T18:03:20;12.40;99.90
4215;DHT22;2121;48.062;7.850;2022-09-25T18:05:46;12.40;99.90
4215;DHT22;2121;48.062;7.850;2022-09-25T18:08:12;12.40;99.90
4215;DHT22;2121;48.062;7.850;2022-09-25T18:10:39;12.50;99.90
4215;DHT22;2121;48.062;7.850;2022-09-25T18:13:09;12.50;99.90
4215;DHT22;2121;48.062;7.850;2022-09-25T18:15:48;12.50;99.90
4215;DHT22;2121;48.062;7.850;2022-09-25T18:18:15;12.60;99.90
4215;DHT22;2121;48.062;7.850;2022-09-25T18:20:41;12.60;99.90
4215;DHT22;2121;48.062;7.850;2022-09-25T18:23:26;12.50;99.90
4215;DHT22;2121;48.062;7.850;2022-09-25T18:25:53;12.40;99.90
4215;DHT22;2121;48.062;7.850;2022-09-25T18:28:19;12.20;99.90
4215;DHT22;2121;48.062;7.850;2022-09-25T18:30:45;12.10;99.90
4215;DHT22;2121;48.062;7.850;2022-09-25T18:33:11;12.10;99.90
4215;DHT22;2121;48.062;7.850;2022-09-25T18:35:36;12.10;99.90
4215;DHT22;2121;48.062;7.850;2022-09-25T18:38:04;12.20;99.90
4215;DHT22;2121;48.062;7.850;2022-09-25T18:40:30;12.30;99.90
4215;DHT22;2121;48.062;7.850;2022-09-25T18:42:56;12.30;99.90
4215;DHT22;2121;48.062;7.850;2022-09-25T18:45:25;12.30;99.90
4215;DHT22;2121;48.062;7.850;2022-09-25T18:47:51;12.20;99.90
4215;DHT22;2121;48.062;7.850;2022-09-25T18:50:18;12.30;99.90
4215;DHT22;2121;48.062;7.850;2022-09-25T18:52:44;12.40;99.90
4215;DHT22;2121;48.062;7.850;2022-09-25T18:55:10;12.50;99.90
4215;DHT22;2121;48.062;7.850;2022-09-25T18:57:35;12.40;99.90
4215;DHT22;2121;48.062;7.850;2022-09-25T19:00:01;12.50;99.90
4215;DHT22;2121;48.062;7.850;2022-09-25T19:02:29;12.40;99.90
4215;DHT22;2121;48.062;7.850;2022-09-25T19:04:56;12.30;99.90
4215;DHT22;2121;48.062;7.850;2022-09-25T19:07:25;12.20;99.90
4215;DHT22;2121;48.062;7.850;2022-09-25T19:09:52;12.30;99.90
4215;DHT22;2121;48.062;7.850;2022-09-25T19:12:19;12.20;99.90
4215;DHT22;2121;48.062;7.850;2022-09-25T19:14:46;12.30;99.90
4215;DHT22;2121;48.062;7.850;2022-09-25T19:17:13;12.30;99.90
4215;DHT22;2121;48.062;7.850;2022-09-25T19:19:40;12.40;99.90
4215;DHT22;2121;48.062;7.850;2022-09-25T19:22:13;12.40;99.90
4215;DHT22;2121;48.062;7.850;2022-09-25T19:24:42;12.40;99.90